sensor_id;sensor_type;location;lat;lon;timestamp;P1;durP1;ratioP1;P2;durP2;ratioP2
11646;SDS011;5880;52.342;9.662;2022-10-23T00:01:30;2.33;;;1.57;;
11646;SDS011;5880;52.342;9.662;2022-10-23T00:04:03;2.83;;;1.50;;
11646;SDS011;5880;52.342;9.662;2022-10-23T00:06:43;1.70;;;1.60;;
11646;SDS011;5880;52.342;9.662;2022-10-23T00:09:10;2.77;;;1.90;;
11646;SDS011;5880;52.342;9.662;2022-10-23T00:11:40;2.17;;;1.70;;
11646;SDS011;5880;52.342;9.662;2022-10-23T00:14:08;2.10;;;1.90;;
11646;SDS011;5880;52.342;9.662;2022-10-23T00:16:34;3.97;;;2.10;;
11646;SDS011;5880;52.342;9.662;2022-10-23T00:19:00;3.10;;;1.67;;
11646;SDS011;5880;52.342;9.662;2022-10-23T00:21:28;2.53;;;1.60;;
11646;SDS011;5880;52.342;9.662;2022-10-23T00:23:53;2.33;;;1.80;;
11646;SDS011;5880;52.342;9.662;2022-10-23T00:26:19;2.87;;;1.63;;
11646;SDS011;5880;52.342;9.662;2022-10-23T00:28:46;1.70;;;1.60;;
11646;SDS011;5880;52.342;9.662;2022-10-23T00:31:15;2.03;;;1.80;;
11646;SDS011;5880;52.342;9.662;2022-10-23T00:33:43;2.50;;;1.97;;
11646;SDS011;5880;52.342;9.662;2022-10-23T00:36:10;4.33;;;2.10;;
11646;SDS011;5880;52.342;9.662;2022-10-23T00:38:38;2.40;;;2.00;;
11646;SDS011;5880;52.342;9.662;2022-10-23T00:41:05;2.53;;;2.10;;
11646;SDS011;5880;52.342;9.662;2022-10-23T00:43:33;3.30;;;2.10;;
11646;SDS011;5880;52.342;9.662;2022-10-23T00:46:18;3.00;;;2.00;;
11646;SDS011;5880;52.342;9.662;2022-10-23T00:48:44;3.07;;;2.23;;
11646;SDS011;5880;52.342;9.662;2022-10-23T00:51:09;2.43;;;1.90;;
11646;SDS011;5880;52.342;9.662;2022-10-23T00:53:35;4.57;;;2.23;;
11646;SDS011;5880;52.342;9.662;2022-10-23T00:56:02;2.57;;;2.10;;
11646;SDS011;5880;52.342;9.662;2022-10-23T00:58:28;4.00;;;2.30;;
11646;SDS011;5880;52.342;9.662;2022-10-23T01:00:54;2.80;;;2.20;;
11646;SDS011;5880;52.342;9.662;2022-10-23T01:03:21;2.57;;;2.30;;
11646;SDS011;5880;52.342;9.662;2022-10-23T01:06:07;3.17;;;2.30;;
11646;SDS011;5880;52.342;9.662;2022-10-23T01:08:55;3.47;;;2.33;;
11646;SDS011;5880;52.342;9.662;2022-10-23T01:11:43;3.60;;;2.27;;
11646;SDS011;5880;52.342;9.662;2022-10-23T01:17:39;4.10;;;2.40;;
11646;SDS011;5880;52.342;9.662;2022-10-23T01:20:35;3.03;;;2.07;;
11646;SDS011;5880;52.342;9.662;2022-10-23T01:28:31;2.40;;;2.07;;
11646;SDS011;5880;52.342;9.662;2022-10-23T01:31:08;4.27;;;2.33;;
11646;SDS011;5880;52.342;9.662;2022-10-23T01:33:43;3.03;;;2.10;;
11646;SDS011;5880;52.342;9.662;2022-10-23T01:36:20;2.90;;;2.20;;
11646;SDS011;5880;52.342;9.662;2022-10-23T01:38:55;3.20;;;2.40;;
11646;SDS011;5880;52.342;9.662;2022-10-23T01:42:09;2.57;;;2.27;;
11646;SDS011;5880;52.342;9.662;2022-10-23T01:44:44;2.93;;;2.30;;
11646;SDS011;5880;52.342;9.662;2022-10-23T01:47:19;3.50;;;2.17;;
11646;SDS011;5880;52.342;9.662;2022-10-23T01:49:50;2.77;;;2.00;;
11646;SDS011;5880;52.342;9.662;2022-10-23T01:52:20;3.80;;;2.20;;
11646;SDS011;5880;52.342;9.662;2022-10-23T01:54:46;2.80;;;2.20;;
11646;SDS011;5880;52.342;9.662;2022-10-23T01:57:17;2.17;;;1.80;;
11646;SDS011;5880;52.342;9.662;2022-10-23T01:59:48;2.30;;;2.10;;
11646;SDS011;5880;52.342;9.662;2022-10-23T02:02:20;2.43;;;2.23;;
11646;SDS011;5880;52.342;9.662;2022-10-23T02:04:57;2.23;;;2.03;;
11646;SDS011;5880;52.342;9.662;2022-10-23T02:07:31;3.97;;;1.90;;
11646;SDS011;5880;52.342;9.662;2022-10-23T02:09:57;3.70;;;2.10;;
11646;SDS011;5880;52.342;9.662;2022-10-23T02:15:27;2.83;;;2.10;;
11646;SDS011;5880;52.342;9.662;2022-10-23T02:23:40;2.13;;;1.93;;
11646;SDS011;5880;52.342;9.662;2022-10-23T02:29:06;2.67;;;1.87;;
11646;SDS011;5880;52.342;9.662;2022-10-23T02:31:42;2.30;;;2.07;;
11646;SDS011;5880;52.342;9.662;2022-10-23T02:34:08;2.77;;;2.23;;
11646;SDS011;5880;52.342;9.662;2022-10-23T02:36:34;1.97;;;1.70;;
11646;SDS011;5880;52.342;9.662;2022-10-23T02:38:59;2.43;;;1.77;;
11646;SDS011;5880;52.342;9.662;2022-10-23T02:50:30;2.80;;;2.10;;
11646;SDS011;5880;52.342;9.662;2022-10-23T02:56:31;2.27;;;1.67;;
11646;SDS011;5880;52.342;9.662;2022-10-23T03:02:19;2.30;;;2.10;;
11646;SDS011;5880;52.342;9.662;2022-10-23T03:04:50;3.13;;;2.20;;
11646;SDS011;5880;52.342;9.662;2022-10-23T03:07:19;2.27;;;1.90;;
11646;SDS011;5880;52.342;9.662;2022-10-23T03:09:46;2.30;;;2.10;;
11646;SDS011;5880;52.342;9.662;2022-10-23T03:12:12;3.37;;;2.37;;
11646;SDS011;5880;52.342;9.662;2022-10-23T03:14:38;4.13;;;2.40;;
11646;SDS011;5880;52.342;9.662;2022-10-23T03:17:04;4.33;;;2.40;;
11646;SDS011;5880;52.342;9.662;2022-10-23T03:19:29;2.00;;;1.90;;
11646;SDS011;5880;52.342;9.662;2022-10-23T03:21:55;2.40;;;2.10;;
11646;SDS011;5880;52.342;9.662;2022-10-23T03:24:21;3.87;;;2.20;;
11646;SDS011;5880;52.342;9.662;2022-10-23T03:26:46;2.37;;;2.03;;
11646;SDS011;5880;52.342;9.662;2022-10-23T03:29:12;3.70;;;2.23;;
11646;SDS011;5880;52.342;9.662;2022-10-23T03:31:38;3.43;;;2.03;;
11646;SDS011;5880;52.342;9.662;2022-10-23T03:34:03;3.90;;;2.43;;
11646;SDS011;5880;52.342;9.662;2022-10-23T03:36:34;3.10;;;2.50;;
11646;SDS011;5880;52.342;9.662;2022-10-23T03:39:01;5.77;;;2.43;;
11646;SDS011;5880;52.342;9.662;2022-10-23T03:41:28;3.03;;;2.53;;
11646;SDS011;5880;52.342;9.662;2022-10-23T03:43:54;2.40;;;2.20;;
11646;SDS011;5880;52.342;9.662;2022-10-23T03:46:20;2.93;;;2.10;;
11646;SDS011;5880;52.342;9.662;2022-10-23T03:48:46;2.53;;;2.27;;
11646;SDS011;5880;52.342;9.662;2022-10-23T03:51:11;3.03;;;2.07;;
11646;SDS011;5880;52.342;9.662;2022-10-23T03:53:37;3.13;;;2.43;;
11646;SDS011;5880;52.342;9.662;2022-10-23T03:56:03;2.40;;;2.20;;
11646;SDS011;5880;52.342;9.662;2022-10-23T03:58:29;2.90;;;2.60;;
11646;SDS011;5880;52.342;9.662;2022-10-23T04:00:55;3.17;;;2.87;;
11646;SDS011;5880;52.342;9.662;2022-10-23T04:03:21;3.07;;;2.33;;
11646;SDS011;5880;52.342;9.662;2022-10-23T04:05:47;3.27;;;2.53;;
11646;SDS011;5880;52.342;9.662;2022-10-23T04:08:13;3.47;;;3.07;;
11646;SDS011;5880;52.342;9.662;2022-10-23T04:10:39;5.77;;;2.33;;
11646;SDS011;5880;52.342;9.662;2022-10-23T04:13:05;3.87;;;2.50;;
11646;SDS011;5880;52.342;9.662;2022-10-23T04:15:30;3.60;;;2.67;;
11646;SDS011;5880;52.342;9.662;2022-10-23T04:17:56;3.50;;;2.57;;
11646;SDS011;5880;52.342;9.662;2022-10-23T04:20:22;4.13;;;2.70;;
11646;SDS011;5880;52.342;9.662;2022-10-23T04:22:48;4.23;;;2.83;;
11646;SDS011;5880;52.342;9.662;2022-10-23T04:25:13;4.13;;;2.60;;
11646;SDS011;5880;52.342;9.662;2022-10-23T04:27:40;3.87;;;2.80;;
11646;SDS011;5880;52.342;9.662;2022-10-23T04:30:06;4.10;;;2.80;;
11646;SDS011;5880;52.342;9.662;2022-10-23T04:32:33;4.60;;;2.53;;
11646;SDS011;5880;52.342;9.662;2022-10-23T04:34:59;4.60;;;2.77;;
11646;SDS011;5880;52.342;9.662;2022-10-23T04:37:25;4.87;;;2.90;;
11646;SDS011;5880;52.342;9.662;2022-10-23T04:39:52;5.87;;;2.90;;
11646;SDS011;5880;52.342;9.662;2022-10-23T04:42:17;3.33;;;2.83;;
11646;SDS011;5880;52.342;9.662;2022-10-23T04:44:43;5.40;;;2.80;;
11646;SDS011;5880;52.342;9.662;2022-10-23T04:47:09;4.97;;;2.90;;
11646;SDS011;5880;52.342;9.662;2022-10-23T04:49:34;3.47;;;2.70;;
11646;SDS011;5880;52.342;9.662;2022-10-23T04:52:00;4.13;;;2.50;;
11646;SDS011;5880;52.342;9.662;2022-10-23T04:54:26;3.50;;;2.77;;
11646;SDS011;5880;52.342;9.662;2022-10-23T04:56:51;3.03;;;2.60;;
11646;SDS011;5880;52.342;9.662;2022-10-23T04:59:17;3.27;;;2.53;;
11646;SDS011;5880;52.342;9.662;2022-10-23T05:01:43;3.47;;;2.60;;
11646;SDS011;5880;52.342;9.662;2022-10-23T05:04:09;4.73;;;2.80;;
11646;SDS011;5880;52.342;9.662;2022-10-23T05:06:34;5.00;;;2.50;;
11646;SDS011;5880;52.342;9.662;2022-10-23T05:09:00;3.47;;;2.73;;
11646;SDS011;5880;52.342;9.662;2022-10-23T05:11:26;6.70;;;2.77;;
11646;SDS011;5880;52.342;9.662;2022-10-23T05:13:51;2.87;;;2.40;;
11646;SDS011;5880;52.342;9.662;2022-10-23T05:19:17;3.33;;;2.30;;
11646;SDS011;5880;52.342;9.662;2022-10-23T05:21:52;2.83;;;2.20;;
11646;SDS011;5880;52.342;9.662;2022-10-23T05:24:23;6.10;;;2.67;;
11646;SDS011;5880;52.342;9.662;2022-10-23T05:26:49;3.80;;;2.30;;
11646;SDS011;5880;52.342;9.662;2022-10-23T05:29:17;3.80;;;2.20;;
11646;SDS011;5880;52.342;9.662;2022-10-23T05:31:44;2.77;;;2.00;;
11646;SDS011;5880;52.342;9.662;2022-10-23T05:34:14;3.40;;;2.20;;
11646;SDS011;5880;52.342;9.662;2022-10-23T05:36:45;3.60;;;2.20;;
11646;SDS011;5880;52.342;9.662;2022-10-23T05:39:11;4.00;;;2.50;;
11646;SDS011;5880;52.342;9.662;2022-10-23T05:41:37;3.60;;;2.60;;
11646;SDS011;5880;52.342;9.662;2022-10-23T05:44:03;3.07;;;2.40;;
11646;SDS011;5880;52.342;9.662;2022-10-23T05:46:29;3.23;;;2.17;;
11646;SDS011;5880;52.342;9.662;2022-10-23T05:48:54;2.83;;;2.20;;
11646;SDS011;5880;52.342;9.662;2022-10-23T05:51:20;3.00;;;2.40;;
11646;SDS011;5880;52.342;9.662;2022-10-23T05:53:51;2.33;;;2.13;;
11646;SDS011;5880;52.342;9.662;2022-10-23T05:56:18;2.43;;;2.20;;
11646;SDS011;5880;52.342;9.662;2022-10-23T05:58:44;2.50;;;2.10;;
11646;SDS011;5880;52.342;9.662;2022-10-23T06:01:11;4.20;;;2.13;;
11646;SDS011;5880;52.342;9.662;2022-10-23T06:03:38;3.33;;;2.20;;
11646;SDS011;5880;52.342;9.662;2022-10-23T06:06:05;2.23;;;1.90;;
11646;SDS011;5880;52.342;9.662;2022-10-23T06:08:32;3.43;;;2.30;;
11646;SDS011;5880;52.342;9.662;2022-10-23T06:11:08;3.30;;;2.10;;
11646;SDS011;5880;52.342;9.662;2022-10-23T06:13:41;3.17;;;2.20;;
11646;SDS011;5880;52.342;9.662;2022-10-23T06:16:09;3.47;;;2.17;;
11646;SDS011;5880;52.342;9.662;2022-10-23T06:18:43;4.37;;;2.10;;
11646;SDS011;5880;52.342;9.662;2022-10-23T06:21:10;2.70;;;2.30;;
11646;SDS011;5880;52.342;9.662;2022-10-23T06:23:37;2.63;;;2.20;;
11646;SDS011;5880;52.342;9.662;2022-10-23T06:26:05;5.40;;;2.30;;
11646;SDS011;5880;52.342;9.662;2022-10-23T06:28:34;3.20;;;2.40;;
11646;SDS011;5880;52.342;9.662;2022-10-23T06:31:04;3.50;;;2.20;;
11646;SDS011;5880;52.342;9.662;2022-10-23T06:33:31;4.13;;;2.30;;
11646;SDS011;5880;52.342;9.662;2022-10-23T06:35:57;2.30;;;2.10;;
11646;SDS011;5880;52.342;9.662;2022-10-23T06:38:23;2.80;;;2.40;;
11646;SDS011;5880;52.342;9.662;2022-10-23T06:40:53;3.30;;;2.40;;
11646;SDS011;5880;52.342;9.662;2022-10-23T06:43:20;2.50;;;2.20;;
11646;SDS011;5880;52.342;9.662;2022-10-23T06:45:46;2.90;;;2.10;;
11646;SDS011;5880;52.342;9.662;2022-10-23T06:48:13;3.33;;;2.53;;
11646;SDS011;5880;52.342;9.662;2022-10-23T06:50:39;2.17;;;1.97;;
11646;SDS011;5880;52.342;9.662;2022-10-23T06:53:05;3.63;;;2.20;;
11646;SDS011;5880;52.342;9.662;2022-10-23T06:55:32;3.13;;;2.30;;
11646;SDS011;5880;52.342;9.662;2022-10-23T06:57:58;3.17;;;2.50;;
11646;SDS011;5880;52.342;9.662;2022-10-23T07:00:24;3.20;;;2.50;;
11646;SDS011;5880;52.342;9.662;2022-10-23T07:02:50;3.70;;;2.20;;
11646;SDS011;5880;52.342;9.662;2022-10-23T07:05:17;3.27;;;2.00;;
11646;SDS011;5880;52.342;9.662;2022-10-23T07:07:44;3.73;;;2.27;;
11646;SDS011;5880;52.342;9.662;2022-10-23T07:10:10;2.43;;;2.23;;
11646;SDS011;5880;52.342;9.662;2022-10-23T07:12:36;4.03;;;2.33;;
11646;SDS011;5880;52.342;9.662;2022-10-23T07:15:02;3.30;;;2.40;;
11646;SDS011;5880;52.342;9.662;2022-10-23T07:17:28;2.47;;;2.10;;
11646;SDS011;5880;52.342;9.662;2022-10-23T07:19:53;6.23;;;2.30;;
11646;SDS011;5880;52.342;9.662;2022-10-23T07:22:19;3.30;;;2.27;;
11646;SDS011;5880;52.342;9.662;2022-10-23T07:24:44;4.47;;;2.57;;
11646;SDS011;5880;52.342;9.662;2022-10-23T07:27:10;3.33;;;2.37;;
11646;SDS011;5880;52.342;9.662;2022-10-23T07:29:36;3.30;;;2.30;;
11646;SDS011;5880;52.342;9.662;2022-10-23T07:32:02;3.90;;;2.50;;
11646;SDS011;5880;52.342;9.662;2022-10-23T07:34:28;3.47;;;2.50;;
11646;SDS011;5880;52.342;9.662;2022-10-23T07:36:55;3.23;;;2.33;;
11646;SDS011;5880;52.342;9.662;2022-10-23T07:39:21;3.90;;;2.47;;
11646;SDS011;5880;52.342;9.662;2022-10-23T07:41:47;3.83;;;2.20;;
11646;SDS011;5880;52.342;9.662;2022-10-23T07:44:13;2.63;;;2.10;;
11646;SDS011;5880;52.342;9.662;2022-10-23T07:46:39;3.50;;;2.50;;
11646;SDS011;5880;52.342;9.662;2022-10-23T07:49:05;4.97;;;2.50;;
11646;SDS011;5880;52.342;9.662;2022-10-23T07:51:30;2.70;;;2.17;;
11646;SDS011;5880;52.342;9.662;2022-10-23T07:53:56;2.83;;;2.17;;
11646;SDS011;5880;52.342;9.662;2022-10-23T07:56:23;2.40;;;2.07;;
11646;SDS011;5880;52.342;9.662;2022-10-23T07:58:54;2.60;;;2.03;;
11646;SDS011;5880;52.342;9.662;2022-10-23T08:03:56;2.37;;;2.17;;
11646;SDS011;5880;52.342;9.662;2022-10-23T08:06:22;3.67;;;2.10;;
11646;SDS011;5880;52.342;9.662;2022-10-23T08:08:48;3.60;;;2.20;;
11646;SDS011;5880;52.342;9.662;2022-10-23T08:11:14;3.90;;;2.40;;
11646;SDS011;5880;52.342;9.662;2022-10-23T08:13:43;2.63;;;2.07;;
11646;SDS011;5880;52.342;9.662;2022-10-23T08:16:09;3.17;;;1.80;;
11646;SDS011;5880;52.342;9.662;2022-10-23T08:18:34;3.10;;;2.13;;
11646;SDS011;5880;52.342;9.662;2022-10-23T08:21:01;2.50;;;2.30;;
11646;SDS011;5880;52.342;9.662;2022-10-23T08:23:28;4.07;;;2.30;;
11646;SDS011;5880;52.342;9.662;2022-10-23T08:26:01;1.97;;;1.77;;
11646;SDS011;5880;52.342;9.662;2022-10-23T08:28:29;2.40;;;2.07;;
11646;SDS011;5880;52.342;9.662;2022-10-23T08:30:55;2.97;;;2.38;;
11646;SDS011;5880;52.342;9.662;2022-10-23T08:33:21;3.42;;;2.38;;
11646;SDS011;5880;52.342;9.662;2022-10-23T08:35:48;3.42;;;2.03;;
11646;SDS011;5880;52.342;9.662;2022-10-23T08:38:14;2.53;;;1.90;;
11646;SDS011;5880;52.342;9.662;2022-10-23T08:40:44;3.83;;;2.43;;
11646;SDS011;5880;52.342;9.662;2022-10-23T08:43:27;3.58;;;2.15;;
11646;SDS011;5880;52.342;9.662;2022-10-23T08:46:03;2.85;;;2.40;;
11646;SDS011;5880;52.342;9.662;2022-10-23T08:48:38;5.10;;;2.35;;
11646;SDS011;5880;52.342;9.662;2022-10-23T08:51:28;2.57;;;2.27;;
11646;SDS011;5880;52.342;9.662;2022-10-23T08:54:04;3.87;;;2.20;;
11646;SDS011;5880;52.342;9.662;2022-10-23T08:56:39;2.53;;;2.03;;
11646;SDS011;5880;52.342;9.662;2022-10-23T08:59:12;3.30;;;2.10;;
11646;SDS011;5880;52.342;9.662;2022-10-23T09:05:02;3.05;;;1.95;;
11646;SDS011;5880;52.342;9.662;2022-10-23T09:07:35;2.53;;;1.85;;
11646;SDS011;5880;52.342;9.662;2022-10-23T09:19:09;2.17;;;1.70;;
11646;SDS011;5880;52.342;9.662;2022-10-23T09:21:40;2.05;;;1.55;;
11646;SDS011;5880;52.342;9.662;2022-10-23T09:24:13;3.65;;;1.70;;
11646;SDS011;5880;52.342;9.662;2022-10-23T09:26:43;2.50;;;1.58;;
11646;SDS011;5880;52.342;9.662;2022-10-23T09:31:54;3.15;;;1.50;;
11646;SDS011;5880;52.342;9.662;2022-10-23T09:34:24;3.38;;;1.65;;
11646;SDS011;5880;52.342;9.662;2022-10-23T09:37:03;1.75;;;1.45;;
11646;SDS011;5880;52.342;9.662;2022-10-23T09:39:46;2.20;;;1.60;;
11646;SDS011;5880;52.342;9.662;2022-10-23T09:42:14;2.78;;;1.35;;
11646;SDS011;5880;52.342;9.662;2022-10-23T09:44:49;1.60;;;1.40;;
11646;SDS011;5880;52.342;9.662;2022-10-23T09:47:19;1.98;;;1.55;;
11646;SDS011;5880;52.342;9.662;2022-10-23T09:49:55;3.78;;;1.63;;
11646;SDS011;5880;52.342;9.662;2022-10-23T09:52:34;2.50;;;1.45;;
11646;SDS011;5880;52.342;9.662;2022-10-23T09:55:02;1.75;;;1.27;;
11646;SDS011;5880;52.342;9.662;2022-10-23T09:57:45;3.65;;;1.65;;
11646;SDS011;5880;52.342;9.662;2022-10-23T10:00:22;2.10;;;1.50;;
11646;SDS011;5880;52.342;9.662;2022-10-23T10:08:04;2.22;;;1.30;;
11646;SDS011;5880;52.342;9.662;2022-10-23T10:11:29;3.75;;;1.65;;
11646;SDS011;5880;52.342;9.662;2022-10-23T10:16:55;1.40;;;1.25;;
11646;SDS011;5880;52.342;9.662;2022-10-23T10:28:01;3.15;;;1.65;;
11646;SDS011;5880;52.342;9.662;2022-10-23T10:31:12;2.13;;;1.50;;
11646;SDS011;5880;52.342;9.662;2022-10-23T10:33:55;2.72;;;1.83;;
11646;SDS011;5880;52.342;9.662;2022-10-23T10:36:54;3.33;;;1.40;;
11646;SDS011;5880;52.342;9.662;2022-10-23T10:56:50;3.20;;;1.48;;
11646;SDS011;5880;52.342;9.662;2022-10-23T11:07:10;1.38;;;1.27;;
11646;SDS011;5880;52.342;9.662;2022-10-23T11:09:41;3.20;;;1.45;;
11646;SDS011;5880;52.342;9.662;2022-10-23T11:12:15;3.13;;;1.50;;
11646;SDS011;5880;52.342;9.662;2022-10-23T11:14:51;1.50;;;1.40;;
11646;SDS011;5880;52.342;9.662;2022-10-23T11:19:53;1.88;;;1.20;;
11646;SDS011;5880;52.342;9.662;2022-10-23T11:22:33;4.75;;;1.35;;
11646;SDS011;5880;52.342;9.662;2022-10-23T11:28:49;1.42;;;1.33;;
11646;SDS011;5880;52.342;9.662;2022-10-23T11:31:44;3.40;;;1.38;;
11646;SDS011;5880;52.342;9.662;2022-10-23T11:37:18;1.00;;;1.00;;
11646;SDS011;5880;52.342;9.662;2022-10-23T11:50:49;1.55;;;1.15;;
11646;SDS011;5880;52.342;9.662;2022-10-23T11:53:26;1.52;;;1.27;;
11646;SDS011;5880;52.342;9.662;2022-10-23T11:58:47;1.25;;;1.10;;
11646;SDS011;5880;52.342;9.662;2022-10-23T12:01:32;1.67;;;1.50;;
11646;SDS011;5880;52.342;9.662;2022-10-23T12:06:46;1.20;;;1.10;;
11646;SDS011;5880;52.342;9.662;2022-10-23T12:09:26;1.20;;;1.10;;
11646;SDS011;5880;52.342;9.662;2022-10-23T12:19:50;1.63;;;1.10;;
11646;SDS011;5880;52.342;9.662;2022-10-23T12:22:19;1.65;;;1.20;;
11646;SDS011;5880;52.342;9.662;2022-10-23T12:31:14;1.10;;;1.00;;
11646;SDS011;5880;52.342;9.662;2022-10-23T12:36:57;2.97;;;1.20;;
11646;SDS011;5880;52.342;9.662;2022-10-23T12:39:29;2.08;;;1.20;;
11646;SDS011;5880;52.342;9.662;2022-10-23T12:42:00;1.30;;;1.20;;
11646;SDS011;5880;52.342;9.662;2022-10-23T12:44:27;1.27;;;1.02;;
11646;SDS011;5880;52.342;9.662;2022-10-23T12:46:58;2.72;;;1.15;;
11646;SDS011;5880;52.342;9.662;2022-10-23T12:49:28;2.08;;;1.30;;
11646;SDS011;5880;52.342;9.662;2022-10-23T12:54:45;1.40;;;1.10;;
11646;SDS011;5880;52.342;9.662;2022-10-23T12:57:22;1.05;;;1.00;;
11646;SDS011;5880;52.342;9.662;2022-10-23T12:59:54;1.33;;;1.20;;
11646;SDS011;5880;52.342;9.662;2022-10-23T13:02:30;1.13;;;1.00;;
11646;SDS011;5880;52.342;9.662;2022-10-23T13:04:57;1.15;;;1.10;;
11646;SDS011;5880;52.342;9.662;2022-10-23T13:07:30;2.13;;;1.25;;
11646;SDS011;5880;52.342;9.662;2022-10-23T13:10:01;1.50;;;1.40;;
11646;SDS011;5880;52.342;9.662;2022-10-23T13:12:30;1.13;;;1.02;;
11646;SDS011;5880;52.342;9.662;2022-10-23T13:15:00;1.35;;;1.23;;
11646;SDS011;5880;52.342;9.662;2022-10-23T13:20:27;1.73;;;1.10;;
11646;SDS011;5880;52.342;9.662;2022-10-23T13:25:34;1.60;;;1.17;;
11646;SDS011;5880;52.342;9.662;2022-10-23T13:30:32;2.45;;;1.23;;
11646;SDS011;5880;52.342;9.662;2022-10-23T13:33:20;1.17;;;1.08;;
11646;SDS011;5880;52.342;9.662;2022-10-23T13:36:00;1.90;;;1.10;;
11646;SDS011;5880;52.342;9.662;2022-10-23T13:38:35;2.53;;;1.23;;
11646;SDS011;5880;52.342;9.662;2022-10-23T13:41:05;1.83;;;1.30;;
11646;SDS011;5880;52.342;9.662;2022-10-23T13:43:39;2.08;;;1.20;;
11646;SDS011;5880;52.342;9.662;2022-10-23T13:46:10;1.80;;;1.20;;
11646;SDS011;5880;52.342;9.662;2022-10-23T13:48:44;2.22;;;1.42;;
11646;SDS011;5880;52.342;9.662;2022-10-23T13:51:11;1.45;;;1.30;;
11646;SDS011;5880;52.342;9.662;2022-10-23T13:53:46;1.70;;;1.40;;
11646;SDS011;5880;52.342;9.662;2022-10-23T13:56:12;3.22;;;1.50;;
11646;SDS011;5880;52.342;9.662;2022-10-23T13:58:40;2.42;;;1.30;;
11646;SDS011;5880;52.342;9.662;2022-10-23T14:01:11;1.30;;;1.20;;
11646;SDS011;5880;52.342;9.662;2022-10-23T14:03:48;1.45;;;1.10;;
11646;SDS011;5880;52.342;9.662;2022-10-23T14:06:15;1.45;;;1.10;;
11646;SDS011;5880;52.342;9.662;2022-10-23T14:08:41;1.52;;;1.08;;
11646;SDS011;5880;52.342;9.662;2022-10-23T14:11:08;2.25;;;1.20;;
11646;SDS011;5880;52.342;9.662;2022-10-23T14:13:35;2.05;;;1.33;;
11646;SDS011;5880;52.342;9.662;2022-10-23T14:16:01;2.42;;;1.33;;
11646;SDS011;5880;52.342;9.662;2022-10-23T14:18:27;1.95;;;1.13;;
11646;SDS011;5880;52.342;9.662;2022-10-23T14:20:53;1.15;;;1.05;;
11646;SDS011;5880;52.342;9.662;2022-10-23T14:23:18;1.15;;;1.05;;
11646;SDS011;5880;52.342;9.662;2022-10-23T14:25:44;1.30;;;1.20;;
11646;SDS011;5880;52.342;9.662;2022-10-23T14:28:10;1.75;;;1.20;;
11646;SDS011;5880;52.342;9.662;2022-10-23T14:30:36;3.13;;;1.20;;
11646;SDS011;5880;52.342;9.662;2022-10-23T14:33:01;2.33;;;1.20;;
11646;SDS011;5880;52.342;9.662;2022-10-23T14:35:28;1.95;;;1.00;;
11646;SDS011;5880;52.342;9.662;2022-10-23T14:37:54;1.23;;;1.10;;
11646;SDS011;5880;52.342;9.662;2022-10-23T14:40:19;2.45;;;1.38;;
11646;SDS011;5880;52.342;9.662;2022-10-23T14:42:45;1.77;;;1.50;;
11646;SDS011;5880;52.342;9.662;2022-10-23T14:45:11;1.70;;;1.42;;
11646;SDS011;5880;52.342;9.662;2022-10-23T14:47:36;2.25;;;1.10;;
11646;SDS011;5880;52.342;9.662;2022-10-23T14:50:02;2.17;;;1.30;;
11646;SDS011;5880;52.342;9.662;2022-10-23T14:52:28;1.77;;;1.50;;
11646;SDS011;5880;52.342;9.662;2022-10-23T14:54:54;1.88;;;1.40;;
11646;SDS011;5880;52.342;9.662;2022-10-23T14:57:20;3.15;;;1.50;;
11646;SDS011;5880;52.342;9.662;2022-10-23T14:59:46;1.60;;;1.50;;
11646;SDS011;5880;52.342;9.662;2022-10-23T15:02:13;2.00;;;1.38;;
11646;SDS011;5880;52.342;9.662;2022-10-23T15:04:40;1.50;;;1.40;;
11646;SDS011;5880;52.342;9.662;2022-10-23T15:07:06;1.90;;;1.40;;
11646;SDS011;5880;52.342;9.662;2022-10-23T15:09:32;1.30;;;1.20;;
11646;SDS011;5880;52.342;9.662;2022-10-23T15:12:01;1.45;;;1.30;;
11646;SDS011;5880;52.342;9.662;2022-10-23T15:14:28;2.30;;;1.50;;
11646;SDS011;5880;52.342;9.662;2022-10-23T15:16:54;3.13;;;1.80;;
11646;SDS011;5880;52.342;9.662;2022-10-23T15:19:20;2.90;;;1.95;;
11646;SDS011;5880;52.342;9.662;2022-10-23T15:21:46;2.63;;;1.90;;
11646;SDS011;5880;52.342;9.662;2022-10-23T15:24:13;2.13;;;1.75;;
11646;SDS011;5880;52.342;9.662;2022-10-23T15:26:40;4.25;;;2.58;;
11646;SDS011;5880;52.342;9.662;2022-10-23T15:29:08;3.58;;;2.10;;
11646;SDS011;5880;52.342;9.662;2022-10-23T15:34:05;2.53;;;1.88;;
11646;SDS011;5880;52.342;9.662;2022-10-23T15:36:34;3.28;;;2.25;;
11646;SDS011;5880;52.342;9.662;2022-10-23T15:39:00;2.90;;;2.40;;
11646;SDS011;5880;52.342;9.662;2022-10-23T15:41:27;3.25;;;2.33;;
11646;SDS011;5880;52.342;9.662;2022-10-23T15:43:59;3.03;;;2.17;;
11646;SDS011;5880;52.342;9.662;2022-10-23T15:46:27;3.10;;;2.10;;
11646;SDS011;5880;52.342;9.662;2022-10-23T15:48:52;5.32;;;1.98;;
11646;SDS011;5880;52.342;9.662;2022-10-23T15:51:18;2.92;;;1.77;;
11646;SDS011;5880;52.342;9.662;2022-10-23T15:53:44;2.83;;;2.00;;
11646;SDS011;5880;52.342;9.662;2022-10-23T15:56:10;1.63;;;1.50;;
11646;SDS011;5880;52.342;9.662;2022-10-23T15:58:37;1.60;;;1.40;;
11646;SDS011;5880;52.342;9.662;2022-10-23T16:01:03;1.90;;;1.70;;
11646;SDS011;5880;52.342;9.662;2022-10-23T16:03:34;1.52;;;1.42;;
11646;SDS011;5880;52.342;9.662;2022-10-23T16:06:05;1.70;;;1.60;;
11646;SDS011;5880;52.342;9.662;2022-10-23T16:08:34;2.00;;;1.55;;
11646;SDS011;5880;52.342;9.662;2022-10-23T16:11:00;4.05;;;1.70;;
11646;SDS011;5880;52.342;9.662;2022-10-23T16:13:27;2.08;;;1.80;;
11646;SDS011;5880;52.342;9.662;2022-10-23T16:15:53;1.67;;;1.40;;
11646;SDS011;5880;52.342;9.662;2022-10-23T16:18:19;1.65;;;1.55;;
11646;SDS011;5880;52.342;9.662;2022-10-23T16:20:46;3.53;;;1.70;;
11646;SDS011;5880;52.342;9.662;2022-10-23T16:23:14;2.25;;;1.40;;
11646;SDS011;5880;52.342;9.662;2022-10-23T16:25:40;1.70;;;1.60;;
11646;SDS011;5880;52.342;9.662;2022-10-23T16:28:06;1.67;;;1.40;;
11646;SDS011;5880;52.342;9.662;2022-10-23T16:30:32;1.73;;;1.60;;
11646;SDS011;5880;52.342;9.662;2022-10-23T16:32:57;2.00;;;1.40;;
11646;SDS011;5880;52.342;9.662;2022-10-23T16:35:23;1.60;;;1.50;;
11646;SDS011;5880;52.342;9.662;2022-10-23T16:37:49;1.75;;;1.33;;
11646;SDS011;5880;52.342;9.662;2022-10-23T16:40:15;1.50;;;1.40;;
11646;SDS011;5880;52.342;9.662;2022-10-23T16:42:40;3.00;;;1.60;;
11646;SDS011;5880;52.342;9.662;2022-10-23T16:45:06;1.70;;;1.60;;
11646;SDS011;5880;52.342;9.662;2022-10-23T16:47:33;4.30;;;1.52;;
11646;SDS011;5880;52.342;9.662;2022-10-23T16:49:59;2.13;;;1.35;;
11646;SDS011;5880;52.342;9.662;2022-10-23T16:52:25;1.63;;;1.48;;
11646;SDS011;5880;52.342;9.662;2022-10-23T16:54:52;1.95;;;1.42;;
11646;SDS011;5880;52.342;9.662;2022-10-23T16:57:18;1.50;;;1.30;;
11646;SDS011;5880;52.342;9.662;2022-10-23T16:59:44;1.42;;;1.33;;
11646;SDS011;5880;52.342;9.662;2022-10-23T17:02:10;1.25;;;1.15;;
11646;SDS011;5880;52.342;9.662;2022-10-23T17:04:36;1.48;;;1.38;;
11646;SDS011;5880;52.342;9.662;2022-10-23T17:07:03;1.38;;;1.27;;
11646;SDS011;5880;52.342;9.662;2022-10-23T17:09:30;1.65;;;1.25;;
11646;SDS011;5880;52.342;9.662;2022-10-23T17:11:57;1.50;;;1.40;;
11646;SDS011;5880;52.342;9.662;2022-10-23T17:14:23;1.50;;;1.40;;
11646;SDS011;5880;52.342;9.662;2022-10-23T17:16:53;1.30;;;1.20;;
11646;SDS011;5880;52.342;9.662;2022-10-23T17:19:22;1.73;;;1.20;;
11646;SDS011;5880;52.342;9.662;2022-10-23T17:21:50;1.30;;;1.20;;
11646;SDS011;5880;52.342;9.662;2022-10-23T17:24:18;1.38;;;1.27;;
11646;SDS011;5880;52.342;9.662;2022-10-23T17:26:44;2.08;;;1.40;;
11646;SDS011;5880;52.342;9.662;2022-10-23T17:29:10;1.52;;;1.40;;
11646;SDS011;5880;52.342;9.662;2022-10-23T17:31:41;2.05;;;1.58;;
11646;SDS011;5880;52.342;9.662;2022-10-23T17:34:11;2.05;;;1.55;;
11646;SDS011;5880;52.342;9.662;2022-10-23T17:36:42;1.70;;;1.40;;
11646;SDS011;5880;52.342;9.662;2022-10-23T17:39:12;2.13;;;1.42;;
11646;SDS011;5880;52.342;9.662;2022-10-23T17:41:41;1.90;;;1.50;;
11646;SDS011;5880;52.342;9.662;2022-10-23T17:44:08;1.40;;;1.30;;
11646;SDS011;5880;52.342;9.662;2022-10-23T17:46:35;1.25;;;1.15;;
11646;SDS011;5880;52.342;9.662;2022-10-23T17:49:01;1.80;;;1.60;;